createdAt,value
2022-08-16T00:00:03.793Z,78.32
2022-08-16T00:02:02.818Z,78.56
2022-08-16T00:04:05.177Z,78.48
2022-08-16T00:06:05.473Z,78.59
2022-08-16T00:08:06.652Z,79.13
2022-08-16T00:10:07.689Z,79.46
2022-08-16T00:12:09.402Z,79.63
2022-08-16T00:14:10.591Z,80.03
2022-08-16T00:16:58.114Z,79.98
2022-08-16T00:18:12.766Z,80.48
2022-08-16T00:20:13.759Z,79.82
2022-08-16T00:22:15.510Z,79.62
2022-08-16T00:24:31.024Z,79.52
2022-08-16T00:26:34.486Z,79.24
2022-08-16T00:28:18.955Z,79.24
2022-08-16T00:30:28.903Z,79.42
2022-08-16T00:32:21.717Z,79.24
2022-08-16T00:34:23.157Z,79.45
2022-08-16T00:36:24.427Z,79.9
2022-08-16T00:40:33.853Z,80.17
2022-08-16T00:42:29.461Z,80.35
2022-08-16T00:44:32.014Z,80.53
2022-08-16T00:46:33.440Z,81.05
2022-08-16T00:50:35.633Z,81.27
2022-08-16T00:52:35.365Z,81.49
2022-08-16T00:54:37.114Z,81.6
2022-08-16T00:56:56.080Z,81.17
2022-08-16T00:58:40.107Z,81.57
2022-08-16T01:00:41.374Z,81.52
2022-08-16T01:02:43.036Z,81.22
2022-08-16T01:04:44.152Z,81.5
2022-08-16T01:06:49.042Z,81.69
2022-08-16T01:08:47.127Z,81.56
2022-08-16T01:10:48.153Z,82.06
2022-08-16T01:12:50.039Z,82.35
2022-08-16T01:14:51.505Z,82.93
2022-08-16T01:16:52.721Z,83.26
2022-08-16T01:18:54.275Z,83.44
2022-08-16T01:20:55.823Z,83.51
2022-08-16T01:22:57.466Z,83.65
2022-08-16T01:24:58.444Z,83.79
2022-08-16T01:27:03.792Z,84.21
2022-08-16T01:29:00.760Z,84.59
2022-08-16T01:31:02.287Z,84.73
2022-08-16T01:33:14.071Z,84.65
2022-08-16T01:35:05.599Z,84.62
2022-08-16T01:37:07.160Z,84.36
2022-08-16T01:39:08.432Z,84.29
2022-08-16T01:41:09.855Z,84.78
2022-08-16T01:43:11.110Z,85.21
2022-08-16T01:45:12.766Z,85.36
2022-08-16T01:47:14.157Z,86.43
2022-08-16T01:49:15.375Z,86.63
2022-08-16T01:51:17.411Z,85.72
2022-08-16T01:53:18.140Z,85.69
2022-08-16T01:55:19.747Z,85.79
2022-08-16T01:57:22.732Z,85.75
2022-08-16T01:59:22.582Z,86.12
2022-08-16T02:01:26.079Z,86.54
2022-08-16T02:05:30.331Z,86.46
2022-08-16T02:07:27.830Z,86.51
2022-08-16T02:09:29.304Z,86.19
2022-08-16T02:11:34.087Z,86.53
2022-08-16T02:15:34.078Z,87.86
2022-08-16T02:17:34.692Z,87.18
2022-08-16T02:19:58.251Z,86.45
2022-08-16T02:21:37.614Z,86.72
2022-08-16T02:23:38.935Z,86.65
2022-08-16T02:25:50.559Z,86.53
2022-08-16T02:27:41.695Z,86.94
2022-08-16T02:29:43.169Z,87.71
2022-08-16T02:31:51.425Z,88.32
2022-08-16T02:33:49.000Z,88.25
2022-08-16T02:35:50.070Z,88.65
2022-08-16T02:37:51.673Z,88.31
2022-08-16T02:39:53.837Z,87.75
2022-08-16T02:41:53.121Z,87.85
2022-08-16T02:43:52.227Z,88.06
2022-08-16T02:45:53.508Z,88.49
2022-08-16T02:48:00.872Z,88.6
2022-08-16T02:49:58.784Z,88.31
2022-08-16T02:51:58.517Z,88.27
2022-08-16T02:54:00.391Z,89.09
2022-08-16T02:58:03.114Z,88.86
2022-08-16T03:00:32.357Z,89.14
2022-08-16T03:02:08.039Z,88.88
2022-08-16T03:04:29.462Z,88.95
2022-08-16T03:06:38.951Z,88.84
2022-08-16T03:08:30.979Z,89.05
2022-08-16T03:10:11.953Z,89.19
2022-08-16T03:14:30.197Z,89.51
2022-08-16T03:16:32.721Z,89.89
2022-08-16T03:18:18.583Z,89.9
2022-08-16T03:20:18.538Z,89.77
2022-08-16T03:25:25.469Z,89.8
2022-08-16T03:26:22.107Z,89.86
2022-08-16T03:32:34.078Z,89.28
2022-08-16T03:34:27.303Z,89.28
2022-08-16T03:36:30.497Z,89.84
2022-08-16T03:38:32.374Z,90.19
2022-08-16T03:40:33.118Z,89.84
2022-08-16T03:42:32.864Z,90
2022-08-16T03:46:44.630Z,90.08
2022-08-16T03:48:39.808Z,90.44
2022-08-16T03:50:38.514Z,90.5
2022-08-16T03:52:43.674Z,90.39
2022-08-16T03:54:45.389Z,90.52
2022-08-16T03:56:56.506Z,90.61
2022-08-16T03:58:45.028Z,90.5
2022-08-16T04:00:46.375Z,90.27
2022-08-16T04:02:47.878Z,90.19
2022-08-16T04:04:49.327Z,90.22
2022-08-16T04:06:50.433Z,90.5
2022-08-16T04:08:52.229Z,91.01
2022-08-16T04:10:53.921Z,91.06
2022-08-16T04:12:57.533Z,91.12
2022-08-16T04:14:56.479Z,90.97
2022-08-16T04:16:57.907Z,91.1
2022-08-16T04:19:01.154Z,90.92
2022-08-16T04:21:00.392Z,91.08
2022-08-16T04:23:01.615Z,91.58
2022-08-16T04:25:02.711Z,91.99
2022-08-16T04:29:16.527Z,92.3
2022-08-16T04:31:07.307Z,92.22
2022-08-16T04:33:08.453Z,92.23
2022-08-16T04:35:13.806Z,92.5
2022-08-16T04:37:11.493Z,92.44
2022-08-16T04:39:13.186Z,92.55
2022-08-16T04:41:14.273Z,92.59
2022-08-16T04:43:17.495Z,92.76
2022-08-16T04:45:17.739Z,92.74
2022-08-16T04:47:21.946Z,93.03
2022-08-16T04:49:20.649Z,93.12
2022-08-16T04:51:22.554Z,93.01
2022-08-16T04:53:23.671Z,93.3
2022-08-16T04:55:32.018Z,93.15
2022-08-16T04:57:29.919Z,93.16
2022-08-16T04:59:29.617Z,91.88
2022-08-16T05:01:47.717Z,88.25
2022-08-16T05:03:31.090Z,85.58
2022-08-16T05:05:36.937Z,86.02
2022-08-16T05:07:34.277Z,83.22
2022-08-16T05:11:37.585Z,83.29
2022-08-16T05:13:40.114Z,81.19
2022-08-16T05:15:40.413Z,79.74
2022-08-16T05:17:42.035Z,81.21
2022-08-16T05:19:46.640Z,79.98
2022-08-16T05:21:44.345Z,80.91
2022-08-16T05:23:51.931Z,80.23
2022-08-16T05:25:47.790Z,80.79
2022-08-16T05:27:48.518Z,82.36
2022-08-16T05:29:56.976Z,82.63
2022-08-16T05:31:53.117Z,81.33
2022-08-16T05:33:53.398Z,78.74
2022-08-16T05:35:55.346Z,78.8
2022-08-16T05:37:55.526Z,79.04
2022-08-16T05:39:57.196Z,79.36
2022-08-16T05:41:58.062Z,79.5
2022-08-16T05:42:45.986Z,78.89
2022-08-16T05:44:43.131Z,79.17
2022-08-16T05:48:45.234Z,78.96
2022-08-16T05:50:46.370Z,77.03
2022-08-16T05:52:47.925Z,76.12
2022-08-16T05:54:58.647Z,78.24
2022-08-16T05:56:50.272Z,80.06
2022-08-16T05:58:51.808Z,77.97
2022-08-16T06:00:52.928Z,77.97
2022-08-16T06:02:54.328Z,78.84
2022-08-16T06:04:55.662Z,78.3
2022-08-16T06:06:57.242Z,78.44
2022-08-16T06:08:58.148Z,78.54
2022-08-16T06:11:02.859Z,78.44
2022-08-16T06:13:01.018Z,77.05
2022-08-16T06:15:02.938Z,74.25
2022-08-16T06:17:05.497Z,71.22
2022-08-16T06:19:04.875Z,70.56
2022-08-16T06:21:05.900Z,70.17
2022-08-16T06:23:11.883Z,69.22
2022-08-16T06:25:08.284Z,70.28
2022-08-16T06:27:09.998Z,69.03
2022-08-16T06:29:11.579Z,68.6
2022-08-16T06:31:12.720Z,66.9
2022-08-16T06:33:13.573Z,66.08
2022-08-16T06:35:14.684Z,64.23
2022-08-16T06:37:15.747Z,64.63
2022-08-16T06:39:17.262Z,65
2022-08-16T06:41:18.448Z,65.59
2022-08-16T06:43:20.179Z,66.65
2022-08-16T06:47:22.748Z,69.64
2022-08-16T06:49:23.727Z,67.65
2022-08-16T06:53:26.664Z,62.95
2022-08-16T06:55:31.018Z,62.7
2022-08-16T06:57:28.585Z,60.86
2022-08-16T06:59:29.374Z,60.12
2022-08-16T07:01:44.637Z,63.42
2022-08-16T07:03:32.857Z,64.04
2022-08-16T07:05:41.416Z,62.1
2022-08-16T07:07:36.272Z,60.57
2022-08-16T07:09:35.811Z,62.65
2022-08-16T07:11:46.384Z,60.13
2022-08-16T07:13:58.691Z,59.58
2022-08-16T07:15:50.309Z,59.78
2022-08-16T07:20:02.293Z,59.53
2022-08-16T07:21:46.040Z,58.75
2022-08-16T07:23:44.209Z,59.84
2022-08-16T07:25:44.986Z,60.08
2022-08-16T07:29:47.325Z,58.62
2022-08-16T07:31:49.148Z,60.87
2022-08-16T07:35:51.030Z,59.84
2022-08-16T07:37:52.501Z,58.06
2022-08-16T07:39:54.738Z,57.06
2022-08-16T07:41:55.032Z,57.21
2022-08-16T07:45:57.787Z,54.96
2022-08-16T07:47:59.087Z,54.95
2022-08-16T07:49:59.878Z,53.73
2022-08-16T07:52:01.529Z,53.28
2022-08-16T07:54:09.244Z,54.72
2022-08-16T07:56:04.341Z,56.21
2022-08-16T07:58:05.017Z,54.38
2022-08-16T08:00:06.082Z,55.54
2022-08-16T08:02:06.837Z,58.06
2022-08-16T08:04:08.181Z,57.23
2022-08-16T08:06:10.287Z,58.23
2022-08-16T08:08:11.707Z,57.12
2022-08-16T08:10:13.283Z,56.5
2022-08-16T08:12:31.674Z,58.12
2022-08-16T08:14:29.588Z,57.54
2022-08-16T08:16:16.894Z,58.32
2022-08-16T08:18:20.997Z,58.45
2022-08-16T08:20:20.879Z,58.12
2022-08-16T08:22:22.016Z,58.98
2022-08-16T08:24:21.860Z,59.05
2022-08-16T08:28:24.081Z,59.53
2022-08-16T08:30:50.756Z,57.82
2022-08-16T08:32:51.316Z,57.09
2022-08-16T08:34:27.755Z,56.38
2022-08-16T08:36:32.862Z,55.34
2022-08-16T08:38:42.272Z,54.58
2022-08-16T08:40:30.879Z,53.31
2022-08-16T08:42:32.040Z,51.95
2022-08-16T08:44:33.551Z,52.84
2022-08-16T08:46:35.636Z,55.17
2022-08-16T08:48:36.761Z,55.71
2022-08-16T08:50:38.152Z,55.42
2022-08-16T08:52:40.721Z,56.08
2022-08-16T08:54:41.023Z,55.43
2022-08-16T08:56:45.210Z,54.94
2022-08-16T09:00:50.383Z,55.2
2022-08-16T09:02:51.973Z,55.21
2022-08-16T09:04:47.911Z,55.39
2022-08-16T09:06:49.596Z,55.29
2022-08-16T09:08:50.546Z,54.48
2022-08-16T09:10:56.751Z,55.08
2022-08-16T09:12:53.535Z,55.37
2022-08-16T09:14:54.475Z,53.6
2022-08-16T09:16:57.637Z,54.21
2022-08-16T09:18:59.685Z,53.6
2022-08-16T09:21:00.481Z,54.92
2022-08-16T09:23:00.768Z,54.13
2022-08-16T09:25:11.293Z,53.7
2022-08-16T09:27:02.873Z,52.6
2022-08-16T09:29:14.262Z,52.15
2022-08-16T09:31:04.910Z,52.27
2022-08-16T09:33:06.624Z,51.9
2022-08-16T09:35:07.161Z,51.54
2022-08-16T09:37:14.073Z,50.69
2022-08-16T09:41:14.451Z,51.68
2022-08-16T09:43:37.620Z,51.17
2022-08-16T09:45:17.243Z,51.49
2022-08-16T09:47:15.637Z,51.3
2022-08-16T09:49:16.541Z,51.47
2022-08-16T09:51:18.179Z,52.05
2022-08-16T09:53:19.658Z,53.09
2022-08-16T09:55:21.987Z,53.4
2022-08-16T09:59:25.144Z,52.27
2022-08-16T10:01:25.311Z,52.45
2022-08-16T10:03:26.259Z,52.26
2022-08-16T10:05:27.781Z,52.21
2022-08-16T10:09:45.384Z,52.24
2022-08-16T10:11:31.470Z,52.54
2022-08-16T10:13:33.138Z,52.35
2022-08-16T10:15:34.125Z,52.44
2022-08-16T10:17:35.485Z,53.11
2022-08-16T10:19:36.515Z,54.52
2022-08-16T10:21:37.534Z,54.2
2022-08-16T10:23:38.657Z,53.98
2022-08-16T10:27:00.010Z,52.83
2022-08-16T10:27:45.979Z,52.57
2022-08-16T10:29:59.106Z,52.25
2022-08-16T10:31:46.197Z,52.9
2022-08-16T10:33:45.220Z,53.77
2022-08-16T10:35:47.028Z,53.52
2022-08-16T10:37:48.333Z,52.88
2022-08-16T10:39:49.561Z,53.12
2022-08-16T10:41:50.670Z,50.16
2022-08-16T10:43:51.513Z,51.13
2022-08-16T10:45:59.743Z,51.46
2022-08-16T10:48:00.590Z,50.76
2022-08-16T10:49:55.987Z,49.8
2022-08-16T10:52:02.084Z,49.92
2022-08-16T10:53:59.272Z,50.23
2022-08-16T10:56:01.395Z,50.28
2022-08-16T10:58:09.287Z,50.35
2022-08-16T11:00:04.166Z,50.71
2022-08-16T11:05:04.443Z,51.12
2022-08-16T11:06:09.642Z,51.07
2022-08-16T11:08:09.755Z,50.69
2022-08-16T11:11:01.905Z,51.28
2022-08-16T11:12:14.125Z,51.12
2022-08-16T11:14:14.232Z,51.31
2022-08-16T11:16:27.496Z,51.77
2022-08-16T11:18:48.050Z,51.38
2022-08-16T11:20:42.616Z,50.07
2022-08-16T11:22:23.441Z,50.33
2022-08-16T11:24:39.183Z,50.64
2022-08-16T11:26:23.538Z,49.97
2022-08-16T11:30:28.427Z,47.77
2022-08-16T11:34:39.394Z,46.56
2022-08-16T11:36:29.248Z,46.58
2022-08-16T11:38:47.715Z,45.93
2022-08-16T11:40:32.630Z,45.74
2022-08-16T11:42:35.686Z,45.73
2022-08-16T11:44:53.196Z,44.66
2022-08-16T11:46:44.023Z,44.62
2022-08-16T11:48:36.970Z,45.15
2022-08-16T11:50:37.838Z,45.98
2022-08-16T11:52:39.217Z,45.2
2022-08-16T11:54:40.595Z,45.06
2022-08-16T11:56:52.121Z,45.16
2022-08-16T11:58:43.157Z,43.15
2022-08-16T12:00:50.881Z,41.39
2022-08-16T12:04:51.569Z,39.22
2022-08-16T12:06:49.164Z,40.17
2022-08-16T12:08:50.147Z,40.96
2022-08-16T12:10:52.128Z,41.65
2022-08-16T12:12:53.738Z,39.34
2022-08-16T12:14:59.299Z,38.88
2022-08-16T12:16:56.853Z,37.21
2022-08-16T12:18:56.972Z,37.52
2022-08-16T12:22:59.611Z,35.75
2022-08-16T12:25:00.930Z,34.48
2022-08-16T12:27:01.890Z,35.54
2022-08-16T12:27:45.583Z,35.44
2022-08-16T12:29:47.321Z,35.21
2022-08-16T12:31:56.827Z,35.36
2022-08-16T12:33:50.747Z,35.3
2022-08-16T12:35:51.642Z,36.95
2022-08-16T12:37:56.715Z,36.51
2022-08-16T12:39:54.070Z,37.81
2022-08-16T12:41:55.043Z,37.49
2022-08-16T12:43:56.995Z,36.93
2022-08-16T12:45:57.533Z,35.88
2022-08-16T12:48:22.400Z,35.02
2022-08-16T12:50:00.174Z,35.39
2022-08-16T12:52:01.575Z,35.13
2022-08-16T12:54:03.305Z,35
2022-08-16T12:56:04.688Z,34.67
2022-08-16T13:00:07.319Z,35.54
2022-08-16T13:02:12.343Z,35.3
2022-08-16T13:04:20.458Z,34.88
2022-08-16T13:06:12.453Z,35.06
2022-08-16T13:10:20.961Z,35.57
2022-08-16T13:12:15.865Z,37.25
2022-08-16T13:14:19.171Z,36.48
2022-08-16T13:16:20.562Z,37.11
2022-08-16T13:18:24.337Z,35.24
2022-08-16T13:20:20.047Z,34.98
2022-08-16T13:22:21.583Z,34.61
2022-08-16T13:24:22.855Z,34.64
2022-08-16T13:26:24.527Z,35.71
2022-08-16T13:28:25.711Z,35.57
2022-08-16T13:30:36.673Z,36.33
2022-08-16T13:32:39.489Z,36.81
2022-08-16T13:34:29.898Z,35.78
2022-08-16T13:36:48.356Z,35.73
2022-08-16T13:38:36.938Z,34.25
2022-08-16T13:40:34.051Z,34.91
2022-08-16T13:42:35.198Z,34.51
2022-08-16T13:44:49.045Z,34.94
2022-08-16T13:46:37.898Z,34.35
2022-08-16T13:48:43.172Z,33.65
2022-08-16T13:50:49.454Z,33.42
2022-08-16T13:52:41.812Z,34.45
2022-08-16T13:54:43.422Z,33.43
2022-08-16T13:58:50.749Z,33.36
2022-08-16T14:00:48.023Z,32.43
2022-08-16T14:02:49.614Z,32.22
2022-08-16T14:04:59.622Z,30.86
2022-08-16T14:08:59.412Z,30.97
2022-08-16T14:10:53.506Z,30.88
2022-08-16T14:12:54.965Z,30.84
2022-08-16T14:14:57.343Z,32.2
2022-08-16T14:16:58.231Z,32.43
2022-08-16T14:18:59.146Z,32.03
2022-08-16T14:20:59.971Z,31.85
2022-08-16T14:23:01.293Z,31.26
2022-08-16T14:25:03.150Z,32.15
2022-08-16T14:27:04.334Z,32.38
2022-08-16T14:29:04.567Z,32.53
2022-08-16T14:31:06.056Z,32.54
2022-08-16T14:33:07.480Z,32.8
2022-08-16T14:35:08.853Z,33.22
2022-08-16T14:37:09.630Z,32.59
2022-08-16T14:41:11.653Z,33.8
2022-08-16T14:43:15.550Z,33.93
2022-08-16T14:45:14.480Z,33.06
2022-08-16T14:47:16.120Z,33.93
2022-08-16T14:51:19.001Z,33.29
2022-08-16T14:53:19.967Z,32.61
2022-08-16T14:55:20.737Z,32.94
2022-08-16T14:57:22.252Z,32.68
2022-08-16T14:59:23.327Z,31.65
2022-08-16T15:01:24.768Z,32.59
2022-08-16T15:03:26.225Z,31.91
2022-08-16T15:05:27.088Z,31.88
2022-08-16T15:07:30.569Z,30.45
2022-08-16T15:09:30.306Z,31.83
2022-08-16T15:11:31.637Z,31.61
2022-08-16T15:13:32.796Z,31.4
2022-08-16T15:15:33.884Z,31.69
2022-08-16T15:17:37.074Z,31.26
2022-08-16T15:19:36.688Z,31.9
2022-08-16T15:21:37.971Z,32.27
2022-08-16T15:23:40.346Z,32.96
2022-08-16T15:25:41.186Z,32.04
2022-08-16T15:27:40.900Z,31.6
2022-08-16T15:31:43.770Z,31.55
2022-08-16T15:33:47.406Z,32.77
2022-08-16T15:35:46.211Z,32.39
2022-08-16T15:39:48.689Z,30.62
2022-08-16T15:41:50.109Z,30.94
2022-08-16T15:43:51.163Z,31.07
2022-08-16T15:45:53.707Z,29.53
2022-08-16T15:49:55.154Z,29.89
2022-08-16T15:51:56.430Z,30.19
2022-08-16T15:54:16.516Z,29.61
2022-08-16T15:55:58.706Z,29.75
2022-08-16T15:57:59.723Z,30.06
2022-08-16T16:00:04.403Z,30.6
2022-08-16T16:02:02.419Z,31.45
2022-08-16T16:04:03.250Z,31.39
2022-08-16T16:06:04.395Z,31.24
2022-08-16T16:08:11.313Z,30.9
2022-08-16T16:10:07.793Z,31.09
2022-08-16T16:12:21.730Z,30.08
2022-08-16T16:14:08.297Z,30.14
2022-08-16T16:16:13.172Z,30.65
2022-08-16T16:18:10.363Z,30.43
2022-08-16T16:22:12.711Z,31.18
2022-08-16T16:24:20.950Z,31.72
2022-08-16T16:26:15.391Z,31.71
2022-08-16T16:32:18.982Z,32.89
2022-08-16T16:34:20.181Z,31.92
2022-08-16T16:36:24.293Z,32.68
2022-08-16T16:38:22.459Z,32.64
2022-08-16T16:40:31.359Z,31.85
2022-08-16T16:42:29.215Z,32.1
2022-08-16T16:44:31.865Z,31.87
2022-08-16T16:46:40.322Z,31.55
2022-08-16T16:48:29.766Z,30.37
2022-08-16T16:52:31.431Z,31.14
2022-08-16T16:54:31.779Z,32.03
2022-08-16T16:56:36.950Z,32.56
2022-08-16T16:58:35.176Z,32.75
2022-08-16T17:00:37.833Z,32.88
2022-08-16T17:02:39.090Z,32.35
2022-08-16T17:04:38.409Z,32.2
2022-08-16T17:06:40.067Z,31.98
2022-08-16T17:08:41.463Z,32.33
2022-08-16T17:10:45.745Z,33.04
2022-08-16T17:12:57.518Z,33.12
2022-08-16T17:14:44.753Z,33.13
2022-08-16T17:16:46.848Z,33.49
2022-08-16T17:19:02.037Z,33.49
2022-08-16T17:20:47.995Z,33.91
2022-08-16T17:22:54.429Z,34.05
2022-08-16T17:24:52.210Z,34.03
2022-08-16T17:26:55.876Z,34.29
2022-08-16T17:28:59.291Z,34.6
2022-08-16T17:30:53.925Z,35.23
2022-08-16T17:32:55.449Z,35.66
2022-08-16T17:34:59.214Z,36.04
2022-08-16T17:36:58.695Z,36.42
2022-08-16T17:38:58.561Z,36.84
2022-08-16T17:41:00.223Z,37.56
2022-08-16T17:43:00.979Z,37.69
2022-08-16T17:45:02.213Z,37.84
2022-08-16T17:47:03.232Z,38.06
2022-08-16T17:49:04.511Z,38.18
2022-08-16T17:51:05.410Z,38.07
2022-08-16T17:53:06.611Z,37.96
2022-08-16T17:55:08.391Z,38.36
2022-08-16T17:57:09.418Z,38.89
2022-08-16T17:59:10.632Z,38.71
2022-08-16T18:01:12.447Z,38.82
2022-08-16T18:03:13.600Z,38.76
2022-08-16T18:05:14.826Z,38.86
2022-08-16T18:07:15.670Z,38.84
2022-08-16T18:09:17.143Z,39.23
2022-08-16T18:11:18.480Z,39.61
2022-08-16T18:13:20.086Z,40.41
2022-08-16T18:15:21.493Z,41.44
2022-08-16T18:19:24.463Z,41.42
2022-08-16T18:21:25.972Z,41.86
2022-08-16T18:23:27.451Z,42.36
2022-08-16T18:25:29.153Z,42.85
2022-08-16T18:29:32.437Z,42.34
2022-08-16T18:31:33.474Z,43.01
2022-08-16T18:33:36.483Z,43.6
2022-08-16T18:35:36.471Z,43.77
2022-08-16T18:37:37.262Z,44.41
2022-08-16T18:39:38.691Z,45.02
2022-08-16T18:41:40.039Z,45.48
2022-08-16T18:43:54.787Z,45.43
2022-08-16T18:45:42.419Z,45.06
2022-08-16T18:47:44.178Z,44.89
2022-08-16T18:49:45.267Z,45.32
2022-08-16T18:51:46.785Z,45.1
2022-08-16T18:53:47.692Z,45.88
2022-08-16T18:55:49.236Z,46.58
2022-08-16T18:57:50.255Z,46.93
2022-08-16T18:59:51.717Z,46.23
2022-08-16T19:01:52.778Z,46.14
2022-08-16T19:03:53.906Z,47.05
2022-08-16T19:05:55.127Z,47.44
2022-08-16T19:07:56.667Z,47.92
2022-08-16T19:11:59.344Z,49.09
2022-08-16T19:12:43.026Z,49.38
2022-08-16T19:14:44.107Z,50.07
2022-08-16T19:16:45.590Z,50.33
2022-08-16T19:18:47.233Z,50.53
2022-08-16T19:20:48.188Z,50.37
2022-08-16T19:23:04.400Z,50.18
2022-08-16T19:24:51.076Z,50.63
2022-08-16T19:26:52.892Z,50.69
2022-08-16T19:28:58.220Z,50.21
2022-08-16T19:30:55.582Z,50.2
2022-08-16T19:32:57.173Z,50.42
2022-08-16T19:34:58.812Z,50.39
2022-08-16T19:39:04.448Z,50.91
2022-08-16T19:41:03.037Z,51.17
2022-08-16T19:43:03.966Z,51.55
2022-08-16T19:45:05.126Z,51.95
2022-08-16T19:49:08.000Z,53.35
2022-08-16T19:51:09.594Z,53.76
2022-08-16T19:55:11.560Z,53.98
2022-08-16T19:57:13.232Z,54.05
2022-08-16T19:59:19.692Z,54.32
2022-08-16T20:01:15.764Z,54.88
2022-08-16T20:05:18.120Z,55.42
2022-08-16T20:07:19.578Z,55.34
2022-08-16T20:09:20.748Z,55.37
2022-08-16T20:11:21.665Z,55.91
2022-08-16T20:13:22.857Z,56.49
2022-08-16T20:15:26.761Z,57.2
2022-08-16T20:17:25.352Z,57.07
2022-08-16T20:19:26.336Z,57.18
2022-08-16T20:21:27.791Z,57.12
2022-08-16T20:23:29.184Z,57.64
2022-08-16T20:25:30.816Z,57.04
2022-08-16T20:27:32.130Z,56.87
2022-08-16T20:29:33.170Z,56.58
2022-08-16T20:31:34.544Z,56.64
2022-08-16T20:33:36.232Z,56.42
2022-08-16T20:35:37.476Z,56.31
2022-08-16T20:37:38.493Z,56.51
2022-08-16T20:39:39.555Z,56.95
2022-08-16T20:41:40.560Z,58.16
2022-08-16T20:43:41.489Z,58.84
2022-08-16T20:47:44.072Z,58.02
2022-08-16T20:49:45.329Z,58.44
2022-08-16T20:51:47.211Z,58.54
2022-08-16T20:53:48.010Z,59.27
2022-08-16T20:55:49.207Z,59.53
2022-08-16T20:57:50.074Z,59.66
2022-08-16T20:59:51.449Z,59.96
2022-08-16T21:01:53.330Z,60
2022-08-16T21:03:54.763Z,60.39
2022-08-16T21:05:55.656Z,61.19
2022-08-16T21:07:56.859Z,61.33
2022-08-16T21:09:57.807Z,61.27
2022-08-16T21:11:58.989Z,61.39
2022-08-16T21:14:00.708Z,60.93
2022-08-16T21:18:02.850Z,61.51
2022-08-16T21:20:04.667Z,61.77
2022-08-16T21:22:06.109Z,62.35
2022-08-16T21:24:07.567Z,62.8
2022-08-16T21:26:10.791Z,62.82
2022-08-16T21:28:35.566Z,63
2022-08-16T21:30:11.735Z,63.37
2022-08-16T21:32:13.280Z,63.64
2022-08-16T21:34:14.976Z,63.6
2022-08-16T21:36:16.327Z,64.04
2022-08-16T21:38:28.557Z,64.4
2022-08-16T21:40:18.794Z,63.83
2022-08-16T21:42:20.585Z,63.84
2022-08-16T21:46:24.020Z,64.18
2022-08-16T21:48:33.466Z,64.89
2022-08-16T21:50:26.143Z,64.75
2022-08-16T21:52:27.109Z,64.76
2022-08-16T21:54:27.985Z,65.32
2022-08-16T21:56:28.911Z,64.92
2022-08-16T21:58:30.662Z,65.73
2022-08-16T22:00:32.475Z,65.95
2022-08-16T22:02:38.596Z,65.97
2022-08-16T22:04:38.685Z,65.71
2022-08-16T22:08:44.193Z,66.08
2022-08-16T22:11:05.413Z,66.68
2022-08-16T22:12:40.846Z,66.97
2022-08-16T22:14:42.696Z,67.11
2022-08-16T22:16:44.004Z,67.2
2022-08-16T22:18:51.916Z,67.27
2022-08-16T22:20:46.646Z,67.82
2022-08-16T22:22:48.136Z,68.4
2022-08-16T22:24:49.671Z,67.76
2022-08-16T22:26:51.490Z,67.53
2022-08-16T22:28:52.898Z,67.38
2022-08-16T22:30:54.553Z,67.32
2022-08-16T22:32:55.926Z,67.28
2022-08-16T22:34:59.568Z,67.79
2022-08-16T22:36:58.816Z,68.37
2022-08-16T22:39:00.054Z,68.79
2022-08-16T22:43:03.246Z,68.31
2022-08-16T22:45:04.336Z,68.32
2022-08-16T22:47:06.167Z,68.38
2022-08-16T22:49:07.739Z,68.68
2022-08-16T22:51:09.340Z,69.36
2022-08-16T22:53:10.788Z,69.35
2022-08-16T22:55:11.794Z,69.58
2022-08-16T22:57:13.355Z,70.27
2022-08-16T23:01:15.962Z,70.39
2022-08-16T23:03:17.519Z,70.69
2022-08-16T23:05:19.347Z,70.91
2022-08-16T23:07:21.229Z,70.84
2022-08-16T23:09:22.233Z,70.32
2022-08-16T23:11:23.245Z,70.51
2022-08-16T23:13:24.968Z,70.76
2022-08-16T23:15:26.562Z,70.91
2022-08-16T23:17:28.211Z,71.04
2022-08-16T23:19:29.410Z,71.12
2022-08-16T23:21:30.529Z,71.29
2022-08-16T23:23:32.166Z,71.37
2022-08-16T23:25:33.738Z,72.04
2022-08-16T23:27:35.180Z,72.39
2022-08-16T23:29:36.660Z,72.26
2022-08-16T23:31:38.008Z,72.52
2022-08-16T23:33:38.964Z,72.47
2022-08-16T23:35:44.919Z,72.2
2022-08-16T23:37:41.886Z,72.58
2022-08-16T23:41:44.561Z,72.99
2022-08-16T23:43:45.604Z,73.24
2022-08-16T23:45:46.850Z,73.16
2022-08-16T23:47:48.072Z,73.78
2022-08-16T23:49:59.617Z,73.87
2022-08-16T23:51:50.985Z,73.96
2022-08-16T23:53:52.613Z,73.88
2022-08-16T23:55:53.805Z,74.53
2022-08-16T23:57:55.255Z,74.29
2022-08-16T23:59:56.838Z,74.3
